UAL1612 KORD-CYUL
Flight info
| Callsign | UAL1612 |
|---|---|
| Flight time | 1h 34m |
| Altitude | 39000 |
| Route | EBAKE DCT WISMO DCT POSTS DCT PADDE DCT SVM Q951 SANIN DCT MIGLO HABBS7 |
| Aircraft | B738/M-SDE2E3FGHIRWXY/LB1 |
Departure
| Time | 2026-05-04 11:28 |
|---|---|
| Airport | Chicago O'Hare International Airport (KORD) |
Arrival
| Time | 2026-05-04 13:02 |
|---|---|
| Airport | Montreal / Pierre Elliott Trudeau International Airport (CYUL) |
| Time | Latitude | Longitude | Altitude | Speed | Heading |
|---|---|---|---|---|---|
| 2026-05-04 11:01 | 41.97546 | -87.90737 | 668 ft | 0 kts | 159° |
| 2026-05-04 11:19 | 41.97560 | -87.90744 | 668 ft | 4 kts | 169° |
| 2026-05-04 11:19 | 41.97586 | -87.90744 | 666 ft | 4 kts | 201° |
| 2026-05-04 11:19 | 41.97607 | -87.90725 | 664 ft | 4 kts | 236° |
| 2026-05-04 11:19 | 41.97619 | -87.90693 | 667 ft | 4 kts | 250° |
| 2026-05-04 11:20 | 41.97620 | -87.90687 | 666 ft | 4 kts | 249° |
| 2026-05-04 11:20 | 41.97611 | -87.90721 | 666 ft | 4 kts | 250° |
| 2026-05-04 11:20 | 41.97603 | -87.90748 | 668 ft | 0 kts | 250° |
| 2026-05-04 11:22 | 41.97573 | -87.90858 | 668 ft | 15 kts | 250° |
| 2026-05-04 11:22 | 41.97536 | -87.90991 | 668 ft | 15 kts | 249° |
| 2026-05-04 11:23 | 41.97474 | -87.91042 | 667 ft | 10 kts | 149° |
| 2026-05-04 11:23 | 41.97418 | -87.90982 | 668 ft | 10 kts | 141° |
| 2026-05-04 11:24 | 41.97122 | -87.90490 | 668 ft | 12 kts | 166° |
| 2026-05-04 11:25 | 41.97050 | -87.90455 | 667 ft | 11 kts | 122° |
| 2026-05-04 11:25 | 41.97041 | -87.90349 | 667 ft | 13 kts | 89° |
| 2026-05-04 11:25 | 41.97042 | -87.90206 | 668 ft | 18 kts | 90° |
| 2026-05-04 11:26 | 41.97041 | -87.89900 | 668 ft | 11 kts | 90° |
| 2026-05-04 11:27 | 41.96906 | -87.89547 | 670 ft | 25 kts | 269° |
| 2026-05-04 11:28 | 41.96904 | -87.90124 | 669 ft | 98 kts | 269° |
| 2026-05-04 11:28 | 41.96898 | -87.91319 | 683 ft | 154 kts | 266° |
| 2026-05-04 11:28 | 41.96903 | -87.92813 | 1307 ft | 155 kts | 267° |
| 2026-05-04 11:28 | 41.96932 | -87.94212 | 2224 ft | 149 kts | 269° |
| 2026-05-04 11:29 | 41.96978 | -87.95719 | 2555 ft | 176 kts | 271° |
| 2026-05-04 11:29 | 41.97413 | -87.97390 | 2765 ft | 209 kts | 303° |
| 2026-05-04 11:29 | 41.98667 | -87.98602 | 2991 ft | 240 kts | 336° |
| 2026-05-04 11:29 | 42.00428 | -87.98816 | 3236 ft | 272 kts | 7° |
| 2026-05-04 11:31 | 42.07386 | -87.83264 | 8628 ft | 308 kts | 71° |
| 2026-05-04 11:33 | 42.13188 | -87.61508 | 12006 ft | 404 kts | 68° |
| 2026-05-04 11:33 | 42.14148 | -87.57939 | 12766 ft | 408 kts | 68° |
| 2026-05-04 11:33 | 42.15118 | -87.54326 | 13521 ft | 412 kts | 68° |
| 2026-05-04 11:34 | 42.16098 | -87.50674 | 14183 ft | 417 kts | 68° |
| 2026-05-04 11:34 | 42.17088 | -87.46984 | 14884 ft | 421 kts | 68° |
| 2026-05-04 11:34 | 42.18079 | -87.43278 | 15759 ft | 420 kts | 68° |
| 2026-05-04 11:34 | 42.19071 | -87.39568 | 16558 ft | 422 kts | 68° |
| 2026-05-04 11:35 | 42.20073 | -87.35818 | 17208 ft | 428 kts | 68° |
| 2026-05-04 11:35 | 42.21074 | -87.32064 | 17852 ft | 434 kts | 68° |
| 2026-05-04 11:35 | 42.22097 | -87.28221 | 18470 ft | 438 kts | 68° |
| 2026-05-04 11:35 | 42.23127 | -87.24345 | 19118 ft | 440 kts | 68° |
| 2026-05-04 11:36 | 42.24161 | -87.20446 | 19750 ft | 443 kts | 68° |
| 2026-05-04 11:36 | 42.25202 | -87.16519 | 20358 ft | 446 kts | 68° |
| 2026-05-04 11:36 | 42.26249 | -87.12562 | 20941 ft | 449 kts | 68° |
| 2026-05-04 11:36 | 42.27292 | -87.08570 | 21521 ft | 453 kts | 70° |
| 2026-05-04 11:37 | 42.28039 | -87.04416 | 22074 ft | 459 kts | 80° |
| 2026-05-04 11:37 | 42.28307 | -87.00104 | 22643 ft | 463 kts | 85° |
| 2026-05-04 11:37 | 42.28461 | -86.95746 | 23195 ft | 466 kts | 86° |
| 2026-05-04 11:37 | 42.28597 | -86.91356 | 23650 ft | 470 kts | 86° |
| 2026-05-04 11:38 | 42.28740 | -86.86941 | 24101 ft | 472 kts | 86° |
| 2026-05-04 11:38 | 42.28895 | -86.82501 | 24571 ft | 474 kts | 85° |
| 2026-05-04 11:38 | 42.29061 | -86.78045 | 25030 ft | 476 kts | 85° |
| 2026-05-04 11:38 | 42.29235 | -86.73570 | 25468 ft | 478 kts | 85° |
| 2026-05-04 11:39 | 42.29413 | -86.69076 | 25891 ft | 481 kts | 85° |
| 2026-05-04 11:39 | 42.29591 | -86.64557 | 26305 ft | 483 kts | 85° |
| 2026-05-04 11:40 | 42.30632 | -86.36994 | 28619 ft | 496 kts | 85° |
| 2026-05-04 11:41 | 42.30800 | -86.32346 | 29124 ft | 494 kts | 85° |
| 2026-05-04 11:41 | 42.30965 | -86.27721 | 29728 ft | 491 kts | 85° |
| 2026-05-04 11:41 | 42.31127 | -86.23128 | 30237 ft | 488 kts | 84° |
| 2026-05-04 11:41 | 42.31288 | -86.18551 | 30658 ft | 488 kts | 84° |
| 2026-05-04 11:42 | 42.31448 | -86.13973 | 31025 ft | 488 kts | 84° |
| 2026-05-04 11:42 | 42.31601 | -86.09383 | 31393 ft | 489 kts | 85° |
| 2026-05-04 11:42 | 42.31650 | -86.04797 | 31812 ft | 488 kts | 87° |
| 2026-05-04 11:42 | 42.31607 | -86.00210 | 32248 ft | 487 kts | 88° |
| 2026-05-04 11:43 | 42.31526 | -85.95636 | 32650 ft | 487 kts | 88° |
| 2026-05-04 11:43 | 42.31437 | -85.91062 | 33020 ft | 487 kts | 88° |
| 2026-05-04 11:43 | 42.31354 | -85.86490 | 33408 ft | 486 kts | 88° |
| 2026-05-04 11:43 | 42.31280 | -85.81929 | 33811 ft | 485 kts | 88° |
| 2026-05-04 11:44 | 42.31214 | -85.77381 | 34117 ft | 485 kts | 88° |
| 2026-05-04 11:44 | 42.31151 | -85.72817 | 34361 ft | 486 kts | 88° |
| 2026-05-04 11:44 | 42.31089 | -85.68243 | 34598 ft | 488 kts | 88° |
| 2026-05-04 11:44 | 42.31025 | -85.63661 | 34880 ft | 488 kts | 88° |
| 2026-05-04 11:45 | 42.30960 | -85.59079 | 35165 ft | 488 kts | 88° |
| 2026-05-04 11:45 | 42.30892 | -85.54487 | 35414 ft | 489 kts | 89° |
| 2026-05-04 11:45 | 42.30822 | -85.49944 | 35659 ft | 490 kts | 89° |
| 2026-05-04 11:45 | 42.30750 | -85.45344 | 35925 ft | 491 kts | 89° |
| 2026-05-04 11:46 | 42.30675 | -85.40731 | 36195 ft | 491 kts | 89° |
| 2026-05-04 11:46 | 42.30598 | -85.36115 | 36396 ft | 493 kts | 89° |
| 2026-05-04 11:46 | 42.30519 | -85.31484 | 36622 ft | 494 kts | 89° |
| 2026-05-04 11:46 | 42.30438 | -85.26842 | 36901 ft | 494 kts | 89° |
| 2026-05-04 11:47 | 42.30355 | -85.22208 | 37160 ft | 494 kts | 89° |
| 2026-05-04 11:47 | 42.30271 | -85.17563 | 37384 ft | 495 kts | 90° |
| 2026-05-04 11:47 | 42.30184 | -85.12909 | 37609 ft | 496 kts | 90° |
| 2026-05-04 11:47 | 42.30097 | -85.08252 | 37871 ft | 496 kts | 90° |
| 2026-05-04 11:48 | 42.30007 | -85.03597 | 38145 ft | 497 kts | 90° |
| 2026-05-04 11:48 | 42.29908 | -84.98928 | 38334 ft | 498 kts | 90° |
| 2026-05-04 11:48 | 42.29799 | -84.94245 | 38518 ft | 499 kts | 90° |
| 2026-05-04 11:48 | 42.29685 | -84.89565 | 38715 ft | 498 kts | 90° |
| 2026-05-04 11:49 | 42.29570 | -84.84886 | 38923 ft | 498 kts | 90° |
| 2026-05-04 11:49 | 42.29454 | -84.80218 | 39114 ft | 497 kts | 90° |
| 2026-05-04 11:49 | 42.29337 | -84.75548 | 39280 ft | 498 kts | 90° |
| 2026-05-04 11:49 | 42.29219 | -84.70878 | 39450 ft | 498 kts | 90° |
| 2026-05-04 11:50 | 42.29100 | -84.66214 | 39646 ft | 497 kts | 90° |
| 2026-05-04 11:50 | 42.28979 | -84.61543 | 39811 ft | 497 kts | 90° |
| 2026-05-04 11:50 | 42.28857 | -84.56876 | 39976 ft | 498 kts | 90° |
| 2026-05-04 11:50 | 42.28732 | -84.52207 | 40150 ft | 497 kts | 90° |
| 2026-05-04 11:51 | 42.28683 | -84.47544 | 40310 ft | 496 kts | 85° |
| 2026-05-04 11:51 | 42.29088 | -84.42937 | 40442 ft | 493 kts | 76° |
| 2026-05-04 11:51 | 42.29745 | -84.38403 | 40619 ft | 492 kts | 75° |
| 2026-05-04 11:51 | 42.30437 | -84.33880 | 40749 ft | 492 kts | 75° |
| 2026-05-04 11:52 | 42.31130 | -84.29349 | 40760 ft | 494 kts | 75° |
| 2026-05-04 11:52 | 42.32473 | -84.20248 | 40764 ft | 494 kts | 76° |
| 2026-05-04 11:53 | 42.33762 | -84.11135 | 40764 ft | 491 kts | 76° |
| 2026-05-04 11:53 | 42.35025 | -84.02079 | 40771 ft | 489 kts | 76° |
| 2026-05-04 11:55 | 42.39997 | -83.66048 | 40786 ft | 487 kts | 76° |
| 2026-05-04 11:56 | 42.41405 | -83.57085 | 40777 ft | 485 kts | 67° |
| 2026-05-04 11:56 | 42.43750 | -83.48551 | 40798 ft | 484 kts | 65° |
| 2026-05-04 11:57 | 42.45788 | -83.41479 | 40781 ft | 486 kts | 65° |
| 2026-05-04 11:57 | 42.48199 | -83.32909 | 40776 ft | 488 kts | 65° |
| 2026-05-04 11:58 | 42.50949 | -83.22883 | 40774 ft | 489 kts | 66° |
| 2026-05-04 11:58 | 42.52924 | -83.15620 | 40792 ft | 490 kts | 66° |
| 2026-05-04 11:59 | 42.55661 | -83.05526 | 40780 ft | 491 kts | 66° |
| 2026-05-04 11:59 | 42.58013 | -82.96828 | 40742 ft | 491 kts | 66° |
| 2026-05-04 12:00 | 42.59976 | -82.89546 | 40733 ft | 491 kts | 66° |
| 2026-05-04 12:00 | 42.62313 | -82.80850 | 40739 ft | 490 kts | 66° |
| 2026-05-04 12:01 | 42.64639 | -82.72164 | 40745 ft | 489 kts | 66° |
| 2026-05-04 12:02 | 42.72693 | -82.41839 | 40759 ft | 486 kts | 66° |
| 2026-05-04 12:03 | 42.74946 | -82.33267 | 40770 ft | 486 kts | 66° |
| 2026-05-04 12:03 | 42.77219 | -82.24591 | 40773 ft | 485 kts | 66° |
| 2026-05-04 12:04 | 42.79479 | -82.15931 | 40761 ft | 485 kts | 67° |
| 2026-05-04 12:04 | 42.81734 | -82.07265 | 40767 ft | 486 kts | 67° |
| 2026-05-04 12:05 | 42.83986 | -81.98575 | 40764 ft | 487 kts | 67° |
| 2026-05-04 12:05 | 42.86237 | -81.89862 | 40770 ft | 488 kts | 67° |
| 2026-05-04 12:06 | 42.88490 | -81.81106 | 40769 ft | 490 kts | 67° |
| 2026-05-04 12:06 | 42.90742 | -81.72320 | 40769 ft | 492 kts | 67° |
| 2026-05-04 12:07 | 42.92995 | -81.63499 | 40793 ft | 493 kts | 67° |
| 2026-05-04 12:07 | 42.95247 | -81.54645 | 40780 ft | 494 kts | 67° |
| 2026-05-04 12:08 | 42.97494 | -81.45779 | 40777 ft | 494 kts | 68° |
| 2026-05-04 12:08 | 42.99734 | -81.36907 | 40782 ft | 494 kts | 68° |
| 2026-05-04 12:09 | 43.01968 | -81.28027 | 40794 ft | 494 kts | 68° |
| 2026-05-04 12:09 | 43.04195 | -81.19138 | 40787 ft | 494 kts | 68° |
| 2026-05-04 12:10 | 43.06418 | -81.10250 | 40783 ft | 494 kts | 67° |
| 2026-05-04 12:10 | 43.09122 | -81.01675 | 40798 ft | 490 kts | 60° |
| 2026-05-04 12:11 | 43.12116 | -80.93309 | 40789 ft | 489 kts | 60° |
| 2026-05-04 12:11 | 43.15093 | -80.84925 | 40785 ft | 490 kts | 61° |
| 2026-05-04 12:12 | 43.18018 | -80.76496 | 40786 ft | 490 kts | 61° |
| 2026-05-04 12:12 | 43.20911 | -80.68055 | 40788 ft | 490 kts | 61° |
| 2026-05-04 12:14 | 43.32431 | -80.34188 | 40779 ft | 490 kts | 62° |
| 2026-05-04 12:15 | 43.35277 | -80.25760 | 40783 ft | 490 kts | 62° |
| 2026-05-04 12:15 | 43.38136 | -80.17268 | 40780 ft | 489 kts | 62° |
| 2026-05-04 12:16 | 43.40987 | -80.08772 | 40795 ft | 489 kts | 62° |
| 2026-05-04 12:16 | 43.43835 | -80.00259 | 40792 ft | 490 kts | 62° |
| 2026-05-04 12:17 | 43.46675 | -79.91744 | 40784 ft | 490 kts | 62° |
| 2026-05-04 12:17 | 43.49510 | -79.83214 | 40777 ft | 490 kts | 62° |
| 2026-05-04 12:18 | 43.52339 | -79.74678 | 40780 ft | 490 kts | 62° |
| 2026-05-04 12:18 | 43.55163 | -79.66128 | 40770 ft | 490 kts | 63° |
| 2026-05-04 12:19 | 43.57980 | -79.57573 | 40778 ft | 490 kts | 63° |
| 2026-05-04 12:19 | 43.60790 | -79.49008 | 40781 ft | 490 kts | 63° |
| 2026-05-04 12:20 | 43.63598 | -79.40428 | 40783 ft | 491 kts | 63° |
| 2026-05-04 12:20 | 43.66404 | -79.31843 | 40782 ft | 491 kts | 63° |
| 2026-05-04 12:21 | 43.69253 | -79.23233 | 40782 ft | 495 kts | 63° |
| 2026-05-04 12:21 | 43.72126 | -79.14560 | 40789 ft | 498 kts | 63° |
| 2026-05-04 12:22 | 43.75005 | -79.05827 | 40776 ft | 500 kts | 63° |
| 2026-05-04 12:22 | 43.77883 | -78.97050 | 40775 ft | 501 kts | 63° |
| 2026-05-04 12:23 | 43.80757 | -78.88252 | 40778 ft | 502 kts | 63° |
| 2026-05-04 12:23 | 43.83608 | -78.79497 | 40777 ft | 502 kts | 63° |
| 2026-05-04 12:24 | 43.86469 | -78.70684 | 40789 ft | 501 kts | 63° |
| 2026-05-04 12:24 | 43.89340 | -78.61810 | 40778 ft | 501 kts | 63° |
| 2026-05-04 12:25 | 43.92182 | -78.52996 | 40778 ft | 500 kts | 63° |
| 2026-05-04 12:25 | 43.95015 | -78.44181 | 40773 ft | 500 kts | 63° |
| 2026-05-04 12:26 | 43.97837 | -78.35371 | 40772 ft | 499 kts | 63° |
| 2026-05-04 12:26 | 44.00652 | -78.26554 | 40772 ft | 499 kts | 63° |
| 2026-05-04 12:27 | 44.03457 | -78.17739 | 40773 ft | 499 kts | 64° |
| 2026-05-04 12:27 | 44.06235 | -78.08978 | 40773 ft | 498 kts | 64° |
| 2026-05-04 12:28 | 44.09024 | -78.00155 | 40769 ft | 498 kts | 64° |
| 2026-05-04 12:28 | 44.11804 | -77.91327 | 40768 ft | 498 kts | 64° |
| 2026-05-04 12:29 | 44.14576 | -77.82498 | 40773 ft | 498 kts | 64° |
| 2026-05-04 12:29 | 44.17343 | -77.73653 | 40781 ft | 498 kts | 64° |
| 2026-05-04 12:30 | 44.20104 | -77.64801 | 40785 ft | 498 kts | 64° |
| 2026-05-04 12:30 | 44.22858 | -77.55936 | 40785 ft | 498 kts | 64° |
| 2026-05-04 12:31 | 44.25606 | -77.47061 | 40785 ft | 498 kts | 64° |
| 2026-05-04 12:31 | 44.28347 | -77.38180 | 40782 ft | 499 kts | 64° |
| 2026-05-04 12:32 | 44.32451 | -77.24824 | 40781 ft | 499 kts | 64° |
| 2026-05-04 12:33 | 44.35177 | -77.15914 | 40780 ft | 499 kts | 64° |
| 2026-05-04 12:33 | 44.37900 | -77.06984 | 40783 ft | 499 kts | 65° |
| 2026-05-04 12:34 | 44.40615 | -76.98046 | 40787 ft | 499 kts | 65° |
| 2026-05-04 12:34 | 44.43306 | -76.89157 | 40790 ft | 500 kts | 65° |
| 2026-05-04 12:35 | 44.46012 | -76.80188 | 40789 ft | 500 kts | 65° |
| 2026-05-04 12:35 | 44.48712 | -76.71207 | 40790 ft | 500 kts | 65° |
| 2026-05-04 12:36 | 44.51405 | -76.62220 | 40792 ft | 501 kts | 65° |
| 2026-05-04 12:36 | 44.54093 | -76.53212 | 40784 ft | 501 kts | 65° |
| 2026-05-04 12:37 | 44.56774 | -76.44200 | 40782 ft | 501 kts | 65° |
| 2026-05-04 12:37 | 44.59447 | -76.35179 | 40783 ft | 501 kts | 65° |
| 2026-05-04 12:38 | 44.62114 | -76.26151 | 40780 ft | 501 kts | 65° |
| 2026-05-04 12:38 | 44.64773 | -76.17106 | 40776 ft | 501 kts | 65° |
| 2026-05-04 12:39 | 44.67423 | -76.08105 | 40760 ft | 496 kts | 65° |
| 2026-05-04 12:39 | 44.68732 | -76.03644 | 40569 ft | 492 kts | 65° |
| 2026-05-04 12:39 | 44.70026 | -75.99223 | 40148 ft | 487 kts | 65° |
| 2026-05-04 12:39 | 44.71288 | -75.94802 | 39575 ft | 489 kts | 66° |
| 2026-05-04 12:40 | 44.72497 | -75.90332 | 38933 ft | 491 kts | 67° |
| 2026-05-04 12:40 | 44.73689 | -75.85807 | 38281 ft | 493 kts | 67° |
| 2026-05-04 12:40 | 44.74876 | -75.81275 | 37527 ft | 494 kts | 67° |
| 2026-05-04 12:40 | 44.76067 | -75.76736 | 36855 ft | 494 kts | 66° |
| 2026-05-04 12:41 | 44.77259 | -75.72219 | 36229 ft | 492 kts | 66° |
| 2026-05-04 12:41 | 44.78453 | -75.67707 | 35595 ft | 491 kts | 65° |
| 2026-05-04 12:41 | 44.79646 | -75.63201 | 34957 ft | 491 kts | 65° |
| 2026-05-04 12:41 | 44.80838 | -75.58695 | 34342 ft | 491 kts | 64° |
| 2026-05-04 12:42 | 44.82026 | -75.54196 | 33707 ft | 490 kts | 64° |
| 2026-05-04 12:42 | 44.83209 | -75.49704 | 32941 ft | 489 kts | 64° |
| 2026-05-04 12:42 | 44.84395 | -75.45220 | 32194 ft | 488 kts | 63° |
| 2026-05-04 12:42 | 44.85626 | -75.40773 | 31403 ft | 487 kts | 62° |
| 2026-05-04 12:43 | 44.86888 | -75.36348 | 30613 ft | 487 kts | 62° |
| 2026-05-04 12:43 | 44.88140 | -75.31987 | 29826 ft | 486 kts | 62° |
| 2026-05-04 12:43 | 44.89420 | -75.27511 | 28867 ft | 485 kts | 62° |
| 2026-05-04 12:43 | 44.90658 | -75.23152 | 27798 ft | 486 kts | 62° |
| 2026-05-04 12:44 | 44.91910 | -75.18715 | 26658 ft | 488 kts | 62° |
| 2026-05-04 12:44 | 44.92756 | -75.15705 | 25871 ft | 490 kts | 62° |
| 2026-05-04 12:44 | 44.94418 | -75.09763 | 24506 ft | 490 kts | 63° |
| 2026-05-04 12:44 | 44.95657 | -75.05317 | 23817 ft | 483 kts | 63° |
| 2026-05-04 12:45 | 44.96873 | -75.00949 | 23212 ft | 474 kts | 63° |
| 2026-05-04 12:45 | 44.98067 | -74.96660 | 22682 ft | 463 kts | 62° |
| 2026-05-04 12:45 | 44.99390 | -74.92537 | 22133 ft | 463 kts | 56° |
| 2026-05-04 12:45 | 45.00981 | -74.88538 | 21585 ft | 470 kts | 54° |
| 2026-05-04 12:46 | 45.02099 | -74.85835 | 21216 ft | 470 kts | 54° |
| 2026-05-04 12:46 | 45.03741 | -74.81867 | 20692 ft | 465 kts | 54° |
| 2026-05-04 12:46 | 45.05332 | -74.77969 | 20181 ft | 463 kts | 54° |
| 2026-05-04 12:46 | 45.06916 | -74.74024 | 19663 ft | 461 kts | 55° |
| 2026-05-04 12:47 | 45.08505 | -74.70024 | 19158 ft | 459 kts | 55° |
| 2026-05-04 12:47 | 45.10040 | -74.66143 | 18672 ft | 457 kts | 56° |
| 2026-05-04 12:47 | 45.11595 | -74.62209 | 18073 ft | 459 kts | 56° |
| 2026-05-04 12:47 | 45.13190 | -74.58306 | 17411 ft | 457 kts | 53° |
| 2026-05-04 12:48 | 45.14872 | -74.54491 | 16747 ft | 454 kts | 52° |
| 2026-05-04 12:48 | 45.16580 | -74.50696 | 16068 ft | 447 kts | 52° |
| 2026-05-04 12:48 | 45.18208 | -74.47040 | 15469 ft | 442 kts | 53° |
| 2026-05-04 12:48 | 45.19855 | -74.43285 | 14956 ft | 443 kts | 53° |
| 2026-05-04 12:49 | 45.21449 | -74.39620 | 14459 ft | 442 kts | 54° |
| 2026-05-04 12:49 | 45.23056 | -74.35904 | 13982 ft | 441 kts | 54° |
| 2026-05-04 12:49 | 45.24654 | -74.32199 | 13486 ft | 440 kts | 54° |
| 2026-05-04 12:49 | 45.26248 | -74.28499 | 12945 ft | 438 kts | 54° |
| 2026-05-04 12:50 | 45.27834 | -74.24816 | 12429 ft | 436 kts | 55° |
| 2026-05-04 12:50 | 45.29412 | -74.21148 | 11900 ft | 434 kts | 55° |
| 2026-05-04 12:50 | 45.30981 | -74.17497 | 11380 ft | 432 kts | 55° |
| 2026-05-04 12:50 | 45.32541 | -74.13866 | 10875 ft | 430 kts | 55° |
| 2026-05-04 12:51 | 45.34093 | -74.10247 | 10376 ft | 428 kts | 56° |
| 2026-05-04 12:51 | 45.35643 | -74.06656 | 9878 ft | 425 kts | 54° |
| 2026-05-04 12:51 | 45.37477 | -74.03449 | 9552 ft | 412 kts | 39° |
| 2026-05-04 12:51 | 45.39627 | -74.00812 | 9319 ft | 407 kts | 35° |
| 2026-05-04 12:52 | 45.41788 | -73.98174 | 9043 ft | 411 kts | 37° |
| 2026-05-04 12:52 | 45.43913 | -73.95465 | 8675 ft | 407 kts | 38° |
| 2026-05-04 12:52 | 45.45977 | -73.92774 | 8275 ft | 398 kts | 38° |
| 2026-05-04 12:52 | 45.47978 | -73.90145 | 7885 ft | 386 kts | 38° |
| 2026-05-04 12:53 | 45.49924 | -73.87595 | 7492 ft | 375 kts | 38° |
| 2026-05-04 12:53 | 45.51821 | -73.85115 | 7105 ft | 365 kts | 38° |
| 2026-05-04 12:53 | 45.53673 | -73.82693 | 6729 ft | 357 kts | 38° |
| 2026-05-04 12:53 | 45.55483 | -73.80327 | 6352 ft | 348 kts | 38° |
| 2026-05-04 12:54 | 45.57222 | -73.78047 | 5950 ft | 331 kts | 38° |
| 2026-05-04 12:54 | 45.58892 | -73.75856 | 5556 ft | 322 kts | 38° |
| 2026-05-04 12:54 | 45.60515 | -73.73729 | 5170 ft | 311 kts | 38° |
| 2026-05-04 12:54 | 45.62073 | -73.71682 | 4891 ft | 298 kts | 38° |
| 2026-05-04 12:55 | 45.63565 | -73.69720 | 4655 ft | 285 kts | 38° |
| 2026-05-04 12:55 | 45.64982 | -73.67853 | 4527 ft | 269 kts | 38° |
| 2026-05-04 12:55 | 45.66318 | -73.66087 | 4385 ft | 254 kts | 39° |
| 2026-05-04 12:55 | 45.67285 | -73.64029 | 4195 ft | 251 kts | 71° |
| 2026-05-04 12:56 | 45.67370 | -73.61593 | 4057 ft | 246 kts | 105° |
| 2026-05-04 12:56 | 45.66716 | -73.59384 | 3906 ft | 238 kts | 131° |
| 2026-05-04 12:56 | 45.65685 | -73.57617 | 3656 ft | 227 kts | 139° |
| 2026-05-04 12:56 | 45.64598 | -73.56084 | 3389 ft | 217 kts | 152° |
| 2026-05-04 12:57 | 45.63272 | -73.55469 | 3126 ft | 190 kts | 192° |
| 2026-05-04 12:57 | 45.62023 | -73.55909 | 3061 ft | 181 kts | 214° |
| 2026-05-04 12:57 | 45.61033 | -73.56923 | 3023 ft | 173 kts | 227° |
| 2026-05-04 12:57 | 45.60156 | -73.58070 | 3001 ft | 169 kts | 229° |
| 2026-05-04 12:58 | 45.59292 | -73.59213 | 3002 ft | 169 kts | 229° |
| 2026-05-04 12:58 | 45.58454 | -73.60312 | 2892 ft | 158 kts | 228° |
| 2026-05-04 12:58 | 45.57660 | -73.61355 | 2692 ft | 153 kts | 228° |
| 2026-05-04 12:58 | 45.56884 | -73.62371 | 2490 ft | 150 kts | 229° |
| 2026-05-04 12:59 | 45.56147 | -73.63334 | 2282 ft | 139 kts | 229° |
| 2026-05-04 12:59 | 45.55450 | -73.64250 | 2118 ft | 136 kts | 229° |
| 2026-05-04 12:59 | 45.54760 | -73.65155 | 1947 ft | 132 kts | 227° |
| 2026-05-04 12:59 | 45.54077 | -73.66050 | 1752 ft | 135 kts | 226° |
| 2026-05-04 13:00 | 45.53383 | -73.66960 | 1541 ft | 135 kts | 226° |
| 2026-05-04 13:00 | 45.52718 | -73.67830 | 1356 ft | 124 kts | 227° |
| 2026-05-04 13:00 | 45.52096 | -73.68646 | 1187 ft | 119 kts | 226° |
| 2026-05-04 13:00 | 45.51487 | -73.69446 | 1019 ft | 122 kts | 225° |
| 2026-05-04 13:01 | 45.50847 | -73.70286 | 849 ft | 128 kts | 224° |
| 2026-05-04 13:01 | 45.50182 | -73.71157 | 669 ft | 133 kts | 224° |
| 2026-05-04 13:01 | 45.49517 | -73.72029 | 487 ft | 128 kts | 224° |
| 2026-05-04 13:01 | 45.48863 | -73.72887 | 297 ft | 129 kts | 223° |
| 2026-05-04 13:02 | 45.48203 | -73.73758 | 127 ft | 129 kts | 222° |
| 2026-05-04 13:02 | 45.47597 | -73.74561 | 109 ft | 100 kts | 222° |
| 2026-05-04 13:02 | 45.47196 | -73.75081 | 113 ft | 58 kts | 223° |
| 2026-05-04 13:02 | 45.46983 | -73.75357 | 107 ft | 34 kts | 223° |
| 2026-05-04 13:03 | 45.46814 | -73.75542 | 107 ft | 29 kts | 206° |
| 2026-05-04 13:03 | 45.46642 | -73.75620 | 105 ft | 25 kts | 193° |
| 2026-05-04 13:03 | 45.46513 | -73.75661 | 104 ft | 20 kts | 193° |
| 2026-05-04 13:03 | 45.46385 | -73.75703 | 103 ft | 19 kts | 193° |
| 2026-05-04 13:04 | 45.46257 | -73.75729 | 103 ft | 19 kts | 180° |
| 2026-05-04 13:04 | 45.46148 | -73.75742 | 101 ft | 13 kts | 216° |
| 2026-05-04 13:04 | 45.46126 | -73.75859 | 101 ft | 12 kts | 270° |
| 2026-05-04 13:04 | 45.46122 | -73.75980 | 101 ft | 12 kts | 266° |
| 2026-05-04 13:05 | 45.46085 | -73.76061 | 102 ft | 10 kts | 186° |
| 2026-05-04 13:05 | 45.46015 | -73.76061 | 103 ft | 10 kts | 177° |
| 2026-05-04 13:05 | 45.45947 | -73.76058 | 103 ft | 10 kts | 178° |
| 2026-05-04 13:05 | 45.45880 | -73.76051 | 103 ft | 9 kts | 170° |
| 2026-05-04 13:06 | 45.45823 | -73.76035 | 103 ft | 9 kts | 168° |
| 2026-05-04 13:06 | 45.45765 | -73.76007 | 104 ft | 11 kts | 146° |
| 2026-05-04 13:06 | 45.45714 | -73.75923 | 103 ft | 11 kts | 128° |
| 2026-05-04 13:06 | 45.45664 | -73.75836 | 104 ft | 11 kts | 129° |
| 2026-05-04 13:07 | 45.45599 | -73.75786 | 104 ft | 11 kts | 165° |
| 2026-05-04 13:07 | 45.45525 | -73.75766 | 104 ft | 11 kts | 169° |
| 2026-05-04 13:07 | 45.45456 | -73.75747 | 104 ft | 11 kts | 169° |
| 2026-05-04 13:07 | 45.45385 | -73.75726 | 104 ft | 9 kts | 160° |
| 2026-05-04 13:08 | 45.45363 | -73.75665 | 104 ft | 8 kts | 82° |
| 2026-05-04 13:08 | 45.45374 | -73.75586 | 104 ft | 8 kts | 77° |
| 2026-05-04 13:08 | 45.45385 | -73.75508 | 104 ft | 8 kts | 78° |
| 2026-05-04 13:08 | 45.45397 | -73.75443 | 102 ft | 7 kts | 60° |
| 2026-05-04 13:09 | 45.45439 | -73.75425 | 104 ft | 7 kts | 357° |
| 2026-05-04 13:09 | 45.45478 | -73.75436 | 104 ft | 2 kts | 346° |
| 2026-05-04 13:09 | 45.45490 | -73.75440 | 104 ft | 1 kts | 346° |
| 2026-05-04 13:09 | 45.45491 | -73.75440 | 104 ft | 0 kts | 347° |
| 2026-05-04 13:10 | 45.45493 | -73.75441 | 104 ft | 1 kts | 347° |
| 2026-05-04 13:10 | 45.45494 | -73.75441 | 104 ft | 0 kts | 347° |